Flight Track Log - Related Links

Times and Time Zones

All times are in EDT time to prevent confusion due to time zone crossing. See the AWI3859 flight status page for this flight to view local times or setup timezone preferences in your user account.

Time Position Orientation Groundspeed Altitude Reporting Facility
EDT Latitude Longitude Course Direction KTS MPH feet Rate Location/Type
Wed 07:33:49 PM 39.0500 -84.6333 90° East 154 177 2,200  Level Cincinnati TRACON
Wed 07:34:49 PM 39.0667 -84.5667 72° East 240 276 5,900 3,500 Climbing Cincinnati TRACON
Wed 07:35:49 PM 39.0500 -84.4833 104° East 264 304 9,200 2,937 Climbing Cincinnati TRACON
Wed 07:36:00 PM 38.9067 -84.3370 96° East  Level FlightAware
Wed 07:37:00 PM 38.8923 -84.1999 101° East  Level FlightAware
Wed 07:37:12 PM 39.0031 -84.3769 120° Southeast 259 298 12,900  Level Indianapolis Center
Wed 07:38:00 PM 38.8714 -84.0642 101° East  Level FlightAware
Wed 07:38:14 PM 38.9636 -84.2728 116° Southeast 309 356 14,300  Level Indianapolis Center
Wed 07:39:16 PM 38.9203 -84.1589 116° Southeast 344 396 16,400 2,098 Climbing Indianapolis Center
Wed 07:40:17 PM 38.8725 -84.0175 113° Southeast 355 409 18,600 2,000 Climbing Indianapolis Center
Wed 07:41:19 PM 38.8433 -83.8872 106° East 375 432 20,500 1,694 Climbing Indianapolis Center
Wed 07:42:21 PM 38.8153 -83.7553 105° East 380 437 22,100 1,561 Climbing Indianapolis Center
Wed 07:43:22 PM 38.7864 -83.6192 105° East 390 449 23,700 1,415 Climbing Indianapolis Center
Wed 07:44:24 PM 38.7642 -83.4753 101° East 407 468 25,000 1,161 Climbing Indianapolis Center
Wed 07:45:26 PM 38.7647 -83.3211 90° East 430 495 26,100 976 Climbing Indianapolis Center
Wed 07:46:27 PM 38.7553 -83.1578 94° East 444 511 27,000 439 Climbing Indianapolis Center
Wed 07:47:29 PM 38.6811 -82.9928 120° Southeast 448 516 27,000  Level Indianapolis Center
Wed 07:48:31 PM 38.6192 -82.8572 120° Southeast 440 506 27,000  Level Indianapolis Center
Wed 07:49:32 PM 38.5578 -82.7289 121° Southeast 427 491 27,000  Level Indianapolis Center
Wed 07:50:34 PM 38.4983 -82.6019 121° Southeast 419 482 27,000  Level Indianapolis Center
Wed 07:51:36 PM 38.4394 -82.4792 121° Southeast 418 481 27,000  Level Indianapolis Center
Wed 07:52:37 PM 38.3800 -82.3539 121° Southeast 412 474 27,000  Level Indianapolis Center
Wed 07:53:39 PM 38.3225 -82.2339 121° Southeast 407 468 27,000  Level Indianapolis Center
Wed 07:54:41 PM 38.2528 -82.0886 121° Southeast 407 468 27,000  Level Indianapolis Center
Wed 07:55:42 PM 38.1947 -81.9703 122° Southeast 402 463 27,000  Level Indianapolis Center
Wed 07:56:44 PM 38.1369 -81.8514 122° Southeast 401 461 27,000  Level Indianapolis Center
Wed 07:57:46 PM 38.0786 -81.7314 122° Southeast 401 461 27,000  Level Indianapolis Center
Wed 07:58:47 PM 38.0197 -81.6103 122° Southeast 401 461 27,000  Level Indianapolis Center
Wed 07:59:49 PM 37.9606 -81.4892 122° Southeast 402 463 27,000  Level Indianapolis Center
Wed 08:00:51 PM 37.8994 -81.3678 123° Southeast 404 465 27,000  Level Indianapolis Center
Wed 08:01:52 PM 37.8267 -81.2208 122° Southeast 408 470 27,000  Level Indianapolis Center
Wed 08:02:54 PM 37.7961 -81.0928 107° East 425 489 27,000  Level Indianapolis Center
Wed 08:03:55 PM 37.8467 -80.9378 68° East 443 510 27,000  Level Indianapolis Center
Wed 08:04:57 PM 37.8967 -80.7967 66° East 443 510 27,000  Level Indianapolis Center
Wed 08:05:59 PM 37.9469 -80.6553 66° East 443 510 27,000  Level Indianapolis Center
Wed 08:06:44 PM 37.9875 -80.5453 65° Northeast 430 495 27,000  Level Washington Center
Wed 08:07:44 PM 38.0372 -80.4033 66° East 435 501 27,000  Level Washington Center
Wed 08:08:42 PM 38.0886 -80.2617 65° Northeast 435 501 27,000  Level Washington Center
Wed 08:09:44 PM 38.1378 -80.1222 66° East 435 501 27,000  Level Washington Center
Wed 08:10:44 PM 38.1850 -79.9769 67° East 435 501 27,000  Level Washington Center
Wed 08:11:43 PM 38.2272 -79.8475 67° East 435 501 27,000 -50 Level Washington Center
Wed 08:12:43 PM 38.2719 -79.6992 69° East 440 506 26,900  Descending Washington Center
Wed 08:13:44 PM 38.3164 -79.5533 69° East 440 506 27,000 -198 Climbing Washington Center
Wed 08:14:44 PM 38.3631 -79.4050 68° East 440 506 26,500 -750 Descending Washington Center
Wed 08:15:44 PM 38.4117 -79.2458 69° East 452 520 25,500 -1,119 Descending Washington Center
Wed 08:16:42 PM 38.4631 -79.0653 70° East 475 547 24,300 -1,412 Descending Washington Center
Wed 08:17:43 PM 38.4947 -78.9022 76° East 481 554 22,700 -1,268 Descending Washington Center
Wed 08:18:45 PM 38.5153 -78.7572 80° East 468 539 21,700 -942 Descending Washington Center
Wed 08:19:44 PM 38.5400 -78.6069 78° East 455 524 20,800 -1,333 Descending Washington Center
Wed 08:20:42 PM 38.5644 -78.4567 78° East 439 505 19,100 -2,017 Descending Washington Center
Wed 08:21:43 PM 38.5867 -78.3142 79° East 425 489 16,800 -1,623 Descending Washington Center
Wed 08:22:44 PM 38.6164 -78.1850 74° East 396 456 15,800 -1,160 Descending Washington Center
Wed 08:23:42 PM 38.6567 -78.0642 67° East 371 427 14,500 -1,424 Descending Washington Center
Wed 08:24:42 PM 38.6944 -77.9456 68° East 360 414 13,000 -1,438 Descending Washington Center
Wed 08:25:43 PM 38.7319 -77.8350 66° East 346 398 11,600 -1,033 Descending Washington Center
Wed 08:26:44 PM 38.7878 -77.7489 50° Northeast 319 367 10,900 -450 Descending Washington Center
Wed 08:27:43 PM 38.8419 -77.6358 58° Northeast 319 367 10,700 -864 Descending Washington Center
Wed 08:28:42 PM 38.8811 -77.5331 64° Northeast 319 367 9,200 -1,572 Descending Washington Center
Wed 08:30:08 PM 38.8833 -77.3833 89° East 302 348 6,900 -1,319 Descending Potomac TRACON
Wed 08:31:03 PM 38.8500 -77.3000 117° Southeast 302 348 6,100 -450 Descending Potomac TRACON
Wed 08:32:08 PM 38.8000 -77.2000 123° Southeast 301 346 6,000 -600 Descending Potomac TRACON
Wed 08:33:03 PM 38.7500 -77.1167 128° Southeast 292 336 4,900 -1,200 Descending Potomac TRACON
Wed 08:34:08 PM 38.6833 -77.1000 169° South 245 282 3,600 -1,104 Descending Potomac TRACON
Wed 08:35:08 PM 38.6833 -77.0167 90° East 244 281 2,600 -545 Descending Potomac TRACON
Wed 08:36:09 PM 38.7167 -77.0167 360° North 140 161 2,500 -397 Descending Potomac TRACON
Wed 08:37:09 PM 38.7667 -77.0333 345° North 158 182 1,800 -750 Descending Potomac TRACON
Wed 08:38:09 PM 38.8000 -77.0333 360° North 116 133 1,000 -700 Descending Potomac TRACON
Wed 08:39:09 PM 38.8333 -77.0333 360° North 126 145 400 -600 Descending Potomac TRACON

Login

Don't have an account? Register now (free) for customized features, flight alerts, and more!